sensor_id;sensor_type;location;lat;lon;timestamp;noise_LAeq;noise_LA_min;noise_LA_max;noise_LA01;noise_LA95
64996;Laerm;51545;51.568;6.998;2023-08-24T00:00:37;37.14;30.43;45.18;;
64996;Laerm;51545;51.568;6.998;2023-08-24T00:03:03;36.78;30.39;41.40;;
64996;Laerm;51545;51.568;6.998;2023-08-24T00:05:29;36.17;30.62;44.72;;
64996;Laerm;51545;51.568;6.998;2023-08-24T00:07:54;35.10;31.25;41.29;;
64996;Laerm;51545;51.568;6.998;2023-08-24T00:10:20;34.98;31.49;53.53;;
64996;Laerm;51545;51.568;6.998;2023-08-24T00:12:45;34.14;30.84;41.42;;
64996;Laerm;51545;51.568;6.998;2023-08-24T00:15:11;33.42;30.13;42.09;;
64996;Laerm;51545;51.568;6.998;2023-08-24T00:17:39;34.82;30.80;39.89;;
64996;Laerm;51545;51.568;6.998;2023-08-24T00:20:06;36.80;32.53;41.04;;
64996;Laerm;51545;51.568;6.998;2023-08-24T00:22:36;36.09;31.70;40.08;;
64996;Laerm;51545;51.568;6.998;2023-08-24T00:25:01;35.07;30.24;49.99;;
64996;Laerm;51545;51.568;6.998;2023-08-24T00:27:27;34.07;30.67;37.75;;
64996;Laerm;51545;51.568;6.998;2023-08-24T00:29:52;33.87;30.61;38.68;;
64996;Laerm;51545;51.568;6.998;2023-08-24T00:32:18;33.53;30.08;37.49;;
64996;Laerm;51545;51.568;6.998;2023-08-24T00:34:43;35.06;30.81;44.26;;
64996;Laerm;51545;51.568;6.998;2023-08-24T00:37:09;35.41;30.11;45.72;;
64996;Laerm;51545;51.568;6.998;2023-08-24T00:39:34;36.78;32.22;42.67;;
64996;Laerm;51545;51.568;6.998;2023-08-24T00:42:00;35.29;31.01;40.78;;
64996;Laerm;51545;51.568;6.998;2023-08-24T00:44:25;35.06;30.85;40.62;;
64996;Laerm;51545;51.568;6.998;2023-08-24T00:46:51;34.65;30.76;40.15;;
64996;Laerm;51545;51.568;6.998;2023-08-24T00:49:17;37.39;32.68;44.39;;
64996;Laerm;51545;51.568;6.998;2023-08-24T00:51:43;36.43;32.29;41.64;;
64996;Laerm;51545;51.568;6.998;2023-08-24T00:54:08;34.17;30.01;38.72;;
64996;Laerm;51545;51.568;6.998;2023-08-24T00:56:34;35.30;30.74;49.65;;
64996;Laerm;51545;51.568;6.998;2023-08-24T00:58:59;34.13;30.06;40.48;;
64996;Laerm;51545;51.568;6.998;2023-08-24T01:01:25;34.15;29.63;39.69;;
64996;Laerm;51545;51.568;6.998;2023-08-24T01:03:50;35.66;30.86;42.55;;
64996;Laerm;51545;51.568;6.998;2023-08-24T01:06:16;36.24;32.04;46.15;;
64996;Laerm;51545;51.568;6.998;2023-08-24T01:08:42;35.07;30.99;40.07;;
64996;Laerm;51545;51.568;6.998;2023-08-24T01:11:33;35.92;31.16;41.34;;
64996;Laerm;51545;51.568;6.998;2023-08-24T01:16:52;34.91;29.98;40.79;;
64996;Laerm;51545;51.568;6.998;2023-08-24T01:19:43;35.07;30.87;39.89;;
64996;Laerm;51545;51.568;6.998;2023-08-24T01:22:37;35.34;29.63;44.56;;
64996;Laerm;51545;51.568;6.998;2023-08-24T01:25:20;33.99;29.64;40.97;;
64996;Laerm;51545;51.568;6.998;2023-08-24T01:27:47;34.17;30.09;39.78;;
64996;Laerm;51545;51.568;6.998;2023-08-24T01:30:14;34.94;30.17;41.66;;
64996;Laerm;51545;51.568;6.998;2023-08-24T01:32:40;34.99;31.27;47.09;;
64996;Laerm;51545;51.568;6.998;2023-08-24T01:35:08;34.39;30.71;39.69;;
64996;Laerm;51545;51.568;6.998;2023-08-24T01:37:34;36.16;30.85;43.78;;
64996;Laerm;51545;51.568;6.998;2023-08-24T01:40:04;35.68;31.32;43.21;;
64996;Laerm;51545;51.568;6.998;2023-08-24T01:42:35;35.27;30.66;50.97;;
64996;Laerm;51545;51.568;6.998;2023-08-24T01:45:06;35.27;31.38;39.74;;
64996;Laerm;51545;51.568;6.998;2023-08-24T01:47:35;36.48;31.69;42.99;;
64996;Laerm;51545;51.568;6.998;2023-08-24T01:50:02;36.41;32.55;46.70;;
64996;Laerm;51545;51.568;6.998;2023-08-24T01:52:28;37.01;31.95;42.74;;
64996;Laerm;51545;51.568;6.998;2023-08-24T01:54:55;35.32;31.11;40.82;;
64996;Laerm;51545;51.568;6.998;2023-08-24T01:57:20;36.84;31.96;44.73;;
64996;Laerm;51545;51.568;6.998;2023-08-24T01:59:46;36.91;32.51;44.71;;
64996;Laerm;51545;51.568;6.998;2023-08-24T02:02:11;36.53;32.74;40.78;;
64996;Laerm;51545;51.568;6.998;2023-08-24T02:04:37;36.28;30.04;43.87;;
64996;Laerm;51545;51.568;6.998;2023-08-24T02:07:02;35.01;30.58;40.06;;
64996;Laerm;51545;51.568;6.998;2023-08-24T02:09:28;36.17;31.70;44.59;;
64996;Laerm;51545;51.568;6.998;2023-08-24T02:11:53;35.21;31.17;40.09;;
64996;Laerm;51545;51.568;6.998;2023-08-24T02:14:18;39.08;32.58;48.24;;
64996;Laerm;51545;51.568;6.998;2023-08-24T02:16:44;37.08;32.84;43.05;;
64996;Laerm;51545;51.568;6.998;2023-08-24T02:19:09;36.95;31.94;44.22;;
64996;Laerm;51545;51.568;6.998;2023-08-24T02:21:36;36.88;31.20;44.22;;
64996;Laerm;51545;51.568;6.998;2023-08-24T02:24:03;37.04;32.45;46.88;;
64996;Laerm;51545;51.568;6.998;2023-08-24T02:26:28;37.92;34.23;43.87;;
64996;Laerm;51545;51.568;6.998;2023-08-24T02:28:54;36.02;32.25;51.34;;
64996;Laerm;51545;51.568;6.998;2023-08-24T02:31:19;36.86;32.95;45.82;;
64996;Laerm;51545;51.568;6.998;2023-08-24T02:33:45;37.50;33.10;42.28;;
64996;Laerm;51545;51.568;6.998;2023-08-24T02:36:10;36.65;33.32;40.87;;
64996;Laerm;51545;51.568;6.998;2023-08-24T02:38:35;38.60;34.87;44.01;;
64996;Laerm;51545;51.568;6.998;2023-08-24T02:41:05;37.47;33.69;41.66;;
64996;Laerm;51545;51.568;6.998;2023-08-24T02:43:31;39.09;34.43;44.20;;
64996;Laerm;51545;51.568;6.998;2023-08-24T02:46:06;39.13;34.64;43.65;;
64996;Laerm;51545;51.568;6.998;2023-08-24T02:48:32;39.53;35.95;45.04;;
64996;Laerm;51545;51.568;6.998;2023-08-24T02:50:58;39.46;35.64;44.21;;
64996;Laerm;51545;51.568;6.998;2023-08-24T02:53:24;40.25;36.39;45.11;;
64996;Laerm;51545;51.568;6.998;2023-08-24T02:55:50;39.03;35.74;44.52;;
64996;Laerm;51545;51.568;6.998;2023-08-24T02:58:15;40.04;36.58;43.42;;
64996;Laerm;51545;51.568;6.998;2023-08-24T03:00:41;40.00;36.53;45.98;;
64996;Laerm;51545;51.568;6.998;2023-08-24T03:03:06;40.25;36.61;47.18;;
64996;Laerm;51545;51.568;6.998;2023-08-24T03:05:32;40.85;36.85;44.54;;
64996;Laerm;51545;51.568;6.998;2023-08-24T03:07:58;41.51;37.73;46.21;;
64996;Laerm;51545;51.568;6.998;2023-08-24T03:10:24;41.97;38.63;46.02;;
64996;Laerm;51545;51.568;6.998;2023-08-24T03:12:50;42.64;37.90;51.58;;
64996;Laerm;51545;51.568;6.998;2023-08-24T03:15:16;43.52;40.08;48.38;;
64996;Laerm;51545;51.568;6.998;2023-08-24T03:17:41;42.36;38.26;47.45;;
64996;Laerm;51545;51.568;6.998;2023-08-24T03:20:07;42.42;38.98;46.73;;
64996;Laerm;51545;51.568;6.998;2023-08-24T03:22:34;43.11;38.84;47.37;;
64996;Laerm;51545;51.568;6.998;2023-08-24T03:24:59;43.05;39.07;48.89;;
64996;Laerm;51545;51.568;6.998;2023-08-24T03:27:25;43.06;40.25;46.50;;
64996;Laerm;51545;51.568;6.998;2023-08-24T03:29:53;42.79;38.40;53.63;;
64996;Laerm;51545;51.568;6.998;2023-08-24T03:32:18;43.42;39.52;47.87;;
64996;Laerm;51545;51.568;6.998;2023-08-24T03:34:44;43.14;39.35;49.08;;
64996;Laerm;51545;51.568;6.998;2023-08-24T03:37:09;42.69;38.86;53.69;;
64996;Laerm;51545;51.568;6.998;2023-08-24T03:39:38;42.20;37.97;45.87;;
64996;Laerm;51545;51.568;6.998;2023-08-24T03:42:04;43.81;40.47;48.42;;
64996;Laerm;51545;51.568;6.998;2023-08-24T03:44:30;44.07;39.98;55.67;;
64996;Laerm;51545;51.568;6.998;2023-08-24T03:46:55;45.11;39.88;64.28;;
64996;Laerm;51545;51.568;6.998;2023-08-24T03:49:20;44.32;40.05;51.84;;
64996;Laerm;51545;51.568;6.998;2023-08-24T03:51:46;44.69;40.65;52.02;;
64996;Laerm;51545;51.568;6.998;2023-08-24T03:54:11;44.14;40.36;50.27;;
64996;Laerm;51545;51.568;6.998;2023-08-24T03:56:37;45.10;40.75;52.50;;
64996;Laerm;51545;51.568;6.998;2023-08-24T03:59:02;44.83;41.48;51.16;;
64996;Laerm;51545;51.568;6.998;2023-08-24T04:01:28;44.83;40.32;50.47;;
64996;Laerm;51545;51.568;6.998;2023-08-24T04:03:54;45.76;41.54;50.60;;
64996;Laerm;51545;51.568;6.998;2023-08-24T04:06:19;48.06;41.76;54.55;;
64996;Laerm;51545;51.568;6.998;2023-08-24T04:08:45;46.24;42.04;55.33;;
64996;Laerm;51545;51.568;6.998;2023-08-24T04:11:10;47.10;42.15;53.25;;
64996;Laerm;51545;51.568;6.998;2023-08-24T04:13:36;45.87;41.71;57.78;;
64996;Laerm;51545;51.568;6.998;2023-08-24T04:16:01;46.43;42.14;51.88;;
64996;Laerm;51545;51.568;6.998;2023-08-24T04:18:29;45.51;41.48;53.07;;
64996;Laerm;51545;51.568;6.998;2023-08-24T04:20:54;48.11;44.52;53.95;;
64996;Laerm;51545;51.568;6.998;2023-08-24T04:23:24;51.49;48.27;60.44;;
64996;Laerm;51545;51.568;6.998;2023-08-24T04:25:51;49.51;46.48;58.78;;
64996;Laerm;51545;51.568;6.998;2023-08-24T04:28:16;46.24;43.09;50.80;;
64996;Laerm;51545;51.568;6.998;2023-08-24T04:30:49;45.53;41.65;51.93;;
64996;Laerm;51545;51.568;6.998;2023-08-24T04:33:15;45.04;41.02;54.73;;
64996;Laerm;51545;51.568;6.998;2023-08-24T04:35:40;45.06;41.50;53.40;;
64996;Laerm;51545;51.568;6.998;2023-08-24T04:38:06;46.11;42.48;54.81;;
64996;Laerm;51545;51.568;6.998;2023-08-24T04:40:45;45.10;41.06;51.03;;
64996;Laerm;51545;51.568;6.998;2023-08-24T04:43:11;45.72;41.82;53.02;;
64996;Laerm;51545;51.568;6.998;2023-08-24T04:45:36;45.22;41.39;53.34;;
64996;Laerm;51545;51.568;6.998;2023-08-24T04:48:02;46.17;43.09;53.48;;
64996;Laerm;51545;51.568;6.998;2023-08-24T04:50:28;46.43;43.20;55.25;;
64996;Laerm;51545;51.568;6.998;2023-08-24T04:52:53;46.43;42.79;51.11;;
64996;Laerm;51545;51.568;6.998;2023-08-24T04:55:19;47.29;43.70;51.66;;
64996;Laerm;51545;51.568;6.998;2023-08-24T04:57:44;47.43;44.03;52.94;;
64996;Laerm;51545;51.568;6.998;2023-08-24T05:00:10;46.93;42.81;52.64;;
64996;Laerm;51545;51.568;6.998;2023-08-24T05:02:41;48.00;43.32;56.82;;
64996;Laerm;51545;51.568;6.998;2023-08-24T05:05:08;47.83;43.83;56.42;;
64996;Laerm;51545;51.568;6.998;2023-08-24T05:07:36;47.53;42.92;56.26;;
64996;Laerm;51545;51.568;6.998;2023-08-24T05:10:02;47.81;42.05;55.86;;
64996;Laerm;51545;51.568;6.998;2023-08-24T05:12:28;48.40;43.39;65.89;;
64996;Laerm;51545;51.568;6.998;2023-08-24T05:14:55;47.88;43.02;65.55;;
64996;Laerm;51545;51.568;6.998;2023-08-24T05:17:20;46.84;42.54;52.89;;
64996;Laerm;51545;51.568;6.998;2023-08-24T05:19:50;46.23;42.20;55.63;;
64996;Laerm;51545;51.568;6.998;2023-08-24T05:22:16;45.64;42.54;56.42;;
64996;Laerm;51545;51.568;6.998;2023-08-24T05:24:42;45.41;41.16;55.05;;
64996;Laerm;51545;51.568;6.998;2023-08-24T05:27:07;44.22;40.89;50.69;;
64996;Laerm;51545;51.568;6.998;2023-08-24T05:29:33;43.95;40.87;54.75;;
64996;Laerm;51545;51.568;6.998;2023-08-24T05:31:58;44.79;40.84;56.57;;
64996;Laerm;51545;51.568;6.998;2023-08-24T05:34:24;43.91;40.81;51.19;;
64996;Laerm;51545;51.568;6.998;2023-08-24T05:36:50;45.35;41.64;59.09;;
64996;Laerm;51545;51.568;6.998;2023-08-24T05:39:15;45.43;41.54;52.11;;
64996;Laerm;51545;51.568;6.998;2023-08-24T05:41:41;46.15;42.20;55.83;;
64996;Laerm;51545;51.568;6.998;2023-08-24T05:44:06;47.15;43.30;54.58;;
64996;Laerm;51545;51.568;6.998;2023-08-24T05:46:32;45.21;41.55;49.52;;
64996;Laerm;51545;51.568;6.998;2023-08-24T05:48:58;45.52;41.58;53.54;;
64996;Laerm;51545;51.568;6.998;2023-08-24T05:51:25;46.69;42.34;55.33;;
64996;Laerm;51545;51.568;6.998;2023-08-24T05:53:50;47.55;42.65;61.20;;
64996;Laerm;51545;51.568;6.998;2023-08-24T05:56:21;50.91;42.76;75.86;;
64996;Laerm;51545;51.568;6.998;2023-08-24T05:58:47;45.67;41.92;58.62;;
64996;Laerm;51545;51.568;6.998;2023-08-24T06:01:12;43.71;39.99;54.61;;
64996;Laerm;51545;51.568;6.998;2023-08-24T06:03:38;44.23;40.03;55.49;;
64996;Laerm;51545;51.568;6.998;2023-08-24T06:06:04;44.38;41.51;51.00;;
64996;Laerm;51545;51.568;6.998;2023-08-24T06:08:29;44.78;41.60;59.04;;
64996;Laerm;51545;51.568;6.998;2023-08-24T06:10:56;45.23;41.65;57.35;;
64996;Laerm;51545;51.568;6.998;2023-08-24T06:13:22;44.92;41.07;52.70;;
64996;Laerm;51545;51.568;6.998;2023-08-24T06:15:47;44.18;41.21;49.08;;
64996;Laerm;51545;51.568;6.998;2023-08-24T06:18:13;44.55;41.43;50.68;;
64996;Laerm;51545;51.568;6.998;2023-08-24T06:20:39;44.05;40.96;50.91;;
64996;Laerm;51545;51.568;6.998;2023-08-24T06:23:04;44.00;40.54;48.80;;
64996;Laerm;51545;51.568;6.998;2023-08-24T06:25:30;44.02;41.08;48.86;;
64996;Laerm;51545;51.568;6.998;2023-08-24T06:27:57;44.02;39.76;47.67;;
64996;Laerm;51545;51.568;6.998;2023-08-24T06:30:24;45.05;41.57;64.91;;
64996;Laerm;51545;51.568;6.998;2023-08-24T06:32:50;53.16;40.45;72.25;;
64996;Laerm;51545;51.568;6.998;2023-08-24T06:35:15;44.93;40.32;55.26;;
64996;Laerm;51545;51.568;6.998;2023-08-24T06:37:42;43.71;40.48;53.59;;
64996;Laerm;51545;51.568;6.998;2023-08-24T06:40:08;46.02;40.20;55.13;;
64996;Laerm;51545;51.568;6.998;2023-08-24T06:42:34;45.12;40.08;55.97;;
64996;Laerm;51545;51.568;6.998;2023-08-24T06:44:59;42.77;39.11;49.84;;
64996;Laerm;51545;51.568;6.998;2023-08-24T06:47:25;44.31;40.60;53.35;;
64996;Laerm;51545;51.568;6.998;2023-08-24T06:49:50;43.62;38.94;56.08;;
64996;Laerm;51545;51.568;6.998;2023-08-24T06:52:16;43.36;39.67;48.80;;
64996;Laerm;51545;51.568;6.998;2023-08-24T06:54:41;41.87;38.38;47.96;;
64996;Laerm;51545;51.568;6.998;2023-08-24T06:57:07;42.91;38.12;58.11;;
64996;Laerm;51545;51.568;6.998;2023-08-24T06:59:32;45.86;38.77;60.90;;
64996;Laerm;51545;51.568;6.998;2023-08-24T07:01:58;41.80;37.84;51.20;;
64996;Laerm;51545;51.568;6.998;2023-08-24T07:04:25;41.37;37.24;53.52;;
64996;Laerm;51545;51.568;6.998;2023-08-24T07:06:51;42.37;36.55;56.05;;
64996;Laerm;51545;51.568;6.998;2023-08-24T07:09:17;41.08;36.55;49.29;;
64996;Laerm;51545;51.568;6.998;2023-08-24T07:11:43;41.30;36.17;54.33;;
64996;Laerm;51545;51.568;6.998;2023-08-24T07:14:09;44.04;37.00;64.46;;
64996;Laerm;51545;51.568;6.998;2023-08-24T07:16:34;41.34;37.98;50.23;;
64996;Laerm;51545;51.568;6.998;2023-08-24T07:19:00;41.07;37.03;48.58;;
64996;Laerm;51545;51.568;6.998;2023-08-24T07:21:25;41.38;37.44;49.45;;
64996;Laerm;51545;51.568;6.998;2023-08-24T07:23:51;43.11;38.84;58.00;;
64996;Laerm;51545;51.568;6.998;2023-08-24T07:26:16;46.04;38.88;57.46;;
64996;Laerm;51545;51.568;6.998;2023-08-24T07:28:42;45.50;40.11;58.39;;
64996;Laerm;51545;51.568;6.998;2023-08-24T07:31:11;46.51;39.36;59.08;;
64996;Laerm;51545;51.568;6.998;2023-08-24T07:33:41;45.32;37.93;57.47;;
64996;Laerm;51545;51.568;6.998;2023-08-24T07:36:09;49.00;40.76;59.63;;
64996;Laerm;51545;51.568;6.998;2023-08-24T07:38:34;43.98;38.77;49.36;;
64996;Laerm;51545;51.568;6.998;2023-08-24T07:41:00;44.81;38.70;49.94;;
64996;Laerm;51545;51.568;6.998;2023-08-24T07:43:25;44.61;38.47;50.45;;
64996;Laerm;51545;51.568;6.998;2023-08-24T07:45:51;42.59;36.83;51.65;;
64996;Laerm;51545;51.568;6.998;2023-08-24T07:48:17;47.67;36.35;54.53;;
64996;Laerm;51545;51.568;6.998;2023-08-24T07:50:42;47.66;40.50;65.18;;
64996;Laerm;51545;51.568;6.998;2023-08-24T07:53:08;44.93;36.39;52.76;;
64996;Laerm;51545;51.568;6.998;2023-08-24T07:55:34;45.34;36.39;55.49;;
64996;Laerm;51545;51.568;6.998;2023-08-24T07:57:59;45.83;39.71;55.71;;
64996;Laerm;51545;51.568;6.998;2023-08-24T08:00:25;45.38;37.92;57.74;;
64996;Laerm;51545;51.568;6.998;2023-08-24T08:02:51;45.14;38.94;54.50;;
64996;Laerm;51545;51.568;6.998;2023-08-24T08:05:17;62.26;39.84;89.47;;
64996;Laerm;51545;51.568;6.998;2023-08-24T08:07:43;44.27;35.74;55.57;;
64996;Laerm;51545;51.568;6.998;2023-08-24T08:10:09;47.14;37.49;52.96;;
64996;Laerm;51545;51.568;6.998;2023-08-24T08:12:35;48.72;38.89;54.30;;
64996;Laerm;51545;51.568;6.998;2023-08-24T08:15:01;46.86;38.28;53.94;;
64996;Laerm;51545;51.568;6.998;2023-08-24T08:17:27;47.06;37.99;53.58;;
64996;Laerm;51545;51.568;6.998;2023-08-24T08:19:56;45.34;37.15;57.42;;
64996;Laerm;51545;51.568;6.998;2023-08-24T08:22:23;45.43;37.28;52.73;;
64996;Laerm;51545;51.568;6.998;2023-08-24T08:24:48;47.87;36.46;57.93;;
64996;Laerm;51545;51.568;6.998;2023-08-24T08:27:15;39.44;35.28;44.49;;
64996;Laerm;51545;51.568;6.998;2023-08-24T08:29:40;39.68;34.30;50.25;;
64996;Laerm;51545;51.568;6.998;2023-08-24T08:32:06;46.26;36.88;60.58;;
64996;Laerm;51545;51.568;6.998;2023-08-24T08:34:33;45.70;36.68;65.22;;
64996;Laerm;51545;51.568;6.998;2023-08-24T08:36:58;41.19;36.82;58.47;;
64996;Laerm;51545;51.568;6.998;2023-08-24T08:39:24;41.07;36.89;49.47;;
64996;Laerm;51545;51.568;6.998;2023-08-24T08:41:49;43.79;35.79;67.98;;
64996;Laerm;51545;51.568;6.998;2023-08-24T08:44:15;45.90;37.78;57.63;;
64996;Laerm;51545;51.568;6.998;2023-08-24T08:46:42;43.07;36.55;51.03;;
64996;Laerm;51545;51.568;6.998;2023-08-24T08:49:07;40.59;35.48;47.34;;
64996;Laerm;51545;51.568;6.998;2023-08-24T08:51:35;50.75;36.66;59.84;;
64996;Laerm;51545;51.568;6.998;2023-08-24T08:54:02;51.20;36.48;57.08;;
64996;Laerm;51545;51.568;6.998;2023-08-24T08:56:29;51.57;36.97;71.22;;
64996;Laerm;51545;51.568;6.998;2023-08-24T08:58:56;50.98;35.48;62.29;;
64996;Laerm;51545;51.568;6.998;2023-08-24T09:01:22;52.44;34.60;77.68;;
64996;Laerm;51545;51.568;6.998;2023-08-24T09:03:49;52.65;36.31;59.81;;
64996;Laerm;51545;51.568;6.998;2023-08-24T09:06:15;51.88;35.28;61.08;;
64996;Laerm;51545;51.568;6.998;2023-08-24T09:08:41;51.51;35.50;72.01;;
64996;Laerm;51545;51.568;6.998;2023-08-24T09:11:08;56.18;35.62;85.12;;
64996;Laerm;51545;51.568;6.998;2023-08-24T09:13:34;40.46;36.05;60.32;;
64996;Laerm;51545;51.568;6.998;2023-08-24T09:16:05;47.19;36.26;68.46;;
64996;Laerm;51545;51.568;6.998;2023-08-24T09:18:37;42.03;36.13;56.63;;
64996;Laerm;51545;51.568;6.998;2023-08-24T09:21:10;39.24;35.14;47.85;;
64996;Laerm;51545;51.568;6.998;2023-08-24T09:23:38;41.45;34.68;57.98;;
64996;Laerm;51545;51.568;6.998;2023-08-24T09:26:03;44.21;36.66;60.90;;
64996;Laerm;51545;51.568;6.998;2023-08-24T09:28:30;46.09;35.86;74.29;;
64996;Laerm;51545;51.568;6.998;2023-08-24T09:30:56;46.73;39.75;70.41;;
64996;Laerm;51545;51.568;6.998;2023-08-24T09:33:21;52.34;35.46;70.38;;
64996;Laerm;51545;51.568;6.998;2023-08-24T09:35:53;53.78;35.67;69.75;;
64996;Laerm;51545;51.568;6.998;2023-08-24T09:38:21;53.76;41.51;74.78;;
64996;Laerm;51545;51.568;6.998;2023-08-24T09:40:50;52.21;44.28;78.20;;
64996;Laerm;51545;51.568;6.998;2023-08-24T09:43:19;51.10;35.38;78.48;;
64996;Laerm;51545;51.568;6.998;2023-08-24T09:45:53;54.73;42.86;81.99;;
64996;Laerm;51545;51.568;6.998;2023-08-24T09:48:20;65.21;39.56;80.82;;
64996;Laerm;51545;51.568;6.998;2023-08-24T09:50:47;48.98;37.79;75.22;;
64996;Laerm;51545;51.568;6.998;2023-08-24T09:53:22;51.46;36.32;83.97;;
64996;Laerm;51545;51.568;6.998;2023-08-24T09:56:08;52.66;35.17;80.48;;
64996;Laerm;51545;51.568;6.998;2023-08-24T09:58:34;53.58;35.95;77.86;;
64996;Laerm;51545;51.568;6.998;2023-08-24T10:01:01;45.58;35.06;69.69;;
64996;Laerm;51545;51.568;6.998;2023-08-24T10:03:30;39.43;34.80;53.07;;
64996;Laerm;51545;51.568;6.998;2023-08-24T10:05:58;41.80;34.41;59.97;;
64996;Laerm;51545;51.568;6.998;2023-08-24T10:08:50;53.30;34.50;74.90;;
64996;Laerm;51545;51.568;6.998;2023-08-24T10:11:23;47.28;34.16;73.64;;
64996;Laerm;51545;51.568;6.998;2023-08-24T10:13:58;41.49;34.88;58.03;;
64996;Laerm;51545;51.568;6.998;2023-08-24T10:16:27;45.29;35.23;61.21;;
64996;Laerm;51545;51.568;6.998;2023-08-24T10:18:53;63.05;34.30;88.06;;
64996;Laerm;51545;51.568;6.998;2023-08-24T10:21:23;53.14;34.04;68.57;;
64996;Laerm;51545;51.568;6.998;2023-08-24T10:23:52;48.85;34.15;62.27;;
64996;Laerm;51545;51.568;6.998;2023-08-24T10:26:19;42.91;34.93;70.34;;
64996;Laerm;51545;51.568;6.998;2023-08-24T10:28:46;44.21;33.33;72.03;;
64996;Laerm;51545;51.568;6.998;2023-08-24T10:31:12;39.44;34.20;53.57;;
64996;Laerm;51545;51.568;6.998;2023-08-24T10:33:39;40.34;34.15;59.38;;
64996;Laerm;51545;51.568;6.998;2023-08-24T10:36:06;38.65;34.82;58.94;;
64996;Laerm;51545;51.568;6.998;2023-08-24T10:38:35;40.96;36.25;53.04;;
64996;Laerm;51545;51.568;6.998;2023-08-24T10:41:05;41.84;36.30;59.01;;
64996;Laerm;51545;51.568;6.998;2023-08-24T10:43:37;40.12;36.34;46.51;;
64996;Laerm;51545;51.568;6.998;2023-08-24T10:46:03;40.61;35.03;65.37;;
64996;Laerm;51545;51.568;6.998;2023-08-24T10:53:44;38.91;34.90;46.10;;
64996;Laerm;51545;51.568;6.998;2023-08-24T10:56:15;40.24;35.04;52.44;;
64996;Laerm;51545;51.568;6.998;2023-08-24T10:58:42;40.33;35.07;59.81;;
64996;Laerm;51545;51.568;6.998;2023-08-24T11:01:19;42.36;34.69;61.94;;
64996;Laerm;51545;51.568;6.998;2023-08-24T11:03:55;44.45;34.71;66.95;;
64996;Laerm;51545;51.568;6.998;2023-08-24T11:06:22;44.41;34.53;64.24;;
64996;Laerm;51545;51.568;6.998;2023-08-24T11:08:48;45.09;35.35;64.56;;
64996;Laerm;51545;51.568;6.998;2023-08-24T11:11:21;45.54;35.28;70.83;;
64996;Laerm;51545;51.568;6.998;2023-08-24T11:14:16;40.23;34.26;61.27;;
64996;Laerm;51545;51.568;6.998;2023-08-24T11:16:48;41.75;34.90;66.82;;
64996;Laerm;51545;51.568;6.998;2023-08-24T11:19:14;41.65;35.06;52.66;;
64996;Laerm;51545;51.568;6.998;2023-08-24T11:21:43;42.53;36.25;63.70;;
64996;Laerm;51545;51.568;6.998;2023-08-24T11:24:12;44.77;34.86;63.70;;
64996;Laerm;51545;51.568;6.998;2023-08-24T11:26:46;46.01;36.62;69.99;;
64996;Laerm;51545;51.568;6.998;2023-08-24T11:29:12;45.14;37.19;65.33;;
64996;Laerm;51545;51.568;6.998;2023-08-24T11:31:38;47.32;35.73;72.13;;
64996;Laerm;51545;51.568;6.998;2023-08-24T11:34:05;43.19;35.91;72.94;;
64996;Laerm;51545;51.568;6.998;2023-08-24T11:36:31;50.51;36.12;81.06;;
64996;Laerm;51545;51.568;6.998;2023-08-24T11:38:58;41.69;37.33;52.33;;
64996;Laerm;51545;51.568;6.998;2023-08-24T11:41:24;41.18;36.77;64.37;;
64996;Laerm;51545;51.568;6.998;2023-08-24T11:43:58;43.00;37.52;58.43;;
64996;Laerm;51545;51.568;6.998;2023-08-24T11:46:24;42.24;37.65;64.65;;
64996;Laerm;51545;51.568;6.998;2023-08-24T11:48:50;42.88;38.46;63.77;;
64996;Laerm;51545;51.568;6.998;2023-08-24T11:51:16;43.99;37.71;70.00;;
64996;Laerm;51545;51.568;6.998;2023-08-24T11:53:44;43.04;38.83;51.84;;
64996;Laerm;51545;51.568;6.998;2023-08-24T11:56:11;43.69;39.04;62.09;;
64996;Laerm;51545;51.568;6.998;2023-08-24T11:58:42;42.13;38.50;65.29;;
64996;Laerm;51545;51.568;6.998;2023-08-24T12:01:09;43.13;38.11;67.06;;
64996;Laerm;51545;51.568;6.998;2023-08-24T12:03:36;43.82;38.40;64.75;;
64996;Laerm;51545;51.568;6.998;2023-08-24T12:06:12;41.85;37.01;53.05;;
64996;Laerm;51545;51.568;6.998;2023-08-24T12:08:45;46.78;36.70;59.81;;
64996;Laerm;51545;51.568;6.998;2023-08-24T12:11:13;44.92;37.83;59.69;;
64996;Laerm;51545;51.568;6.998;2023-08-24T12:13:46;44.15;39.24;61.57;;
64996;Laerm;51545;51.568;6.998;2023-08-24T12:16:12;45.48;38.53;66.80;;
64996;Laerm;51545;51.568;6.998;2023-08-24T12:18:53;44.64;39.40;61.95;;
64996;Laerm;51545;51.568;6.998;2023-08-24T12:21:20;47.07;39.71;68.17;;
64996;Laerm;51545;51.568;6.998;2023-08-24T12:24:06;44.88;39.86;67.96;;
64996;Laerm;51545;51.568;6.998;2023-08-24T12:26:32;42.95;38.10;60.71;;
64996;Laerm;51545;51.568;6.998;2023-08-24T12:29:03;43.97;38.69;56.79;;
64996;Laerm;51545;51.568;6.998;2023-08-24T12:31:30;44.45;39.28;65.71;;
64996;Laerm;51545;51.568;6.998;2023-08-24T12:34:05;44.66;40.61;68.54;;
64996;Laerm;51545;51.568;6.998;2023-08-24T12:36:35;44.05;39.84;52.90;;
64996;Laerm;51545;51.568;6.998;2023-08-24T12:39:01;44.43;39.65;63.79;;
64996;Laerm;51545;51.568;6.998;2023-08-24T12:41:30;46.60;38.87;66.61;;
64996;Laerm;51545;51.568;6.998;2023-08-24T12:43:56;45.86;38.38;63.81;;
64996;Laerm;51545;51.568;6.998;2023-08-24T12:46:21;44.19;39.19;54.24;;
64996;Laerm;51545;51.568;6.998;2023-08-24T12:48:47;44.86;39.77;66.03;;
64996;Laerm;51545;51.568;6.998;2023-08-24T12:51:12;44.53;39.99;66.51;;
64996;Laerm;51545;51.568;6.998;2023-08-24T12:53:38;43.64;39.38;51.88;;
64996;Laerm;51545;51.568;6.998;2023-08-24T12:56:03;45.31;39.88;66.76;;
64996;Laerm;51545;51.568;6.998;2023-08-24T12:58:29;43.76;40.76;65.39;;
64996;Laerm;51545;51.568;6.998;2023-08-24T13:00:55;43.51;39.91;64.99;;
64996;Laerm;51545;51.568;6.998;2023-08-24T13:03:20;45.05;40.39;68.34;;
64996;Laerm;51545;51.568;6.998;2023-08-24T13:05:46;43.58;39.41;67.66;;
64996;Laerm;51545;51.568;6.998;2023-08-24T13:08:13;46.69;40.22;65.89;;
64996;Laerm;51545;51.568;6.998;2023-08-24T13:10:38;44.63;39.82;67.96;;
64996;Laerm;51545;51.568;6.998;2023-08-24T13:13:04;43.12;39.04;55.52;;
64996;Laerm;51545;51.568;6.998;2023-08-24T13:15:29;44.97;39.94;63.93;;
64996;Laerm;51545;51.568;6.998;2023-08-24T13:17:55;45.83;40.22;66.05;;
64996;Laerm;51545;51.568;6.998;2023-08-24T13:20:21;43.77;40.35;51.83;;
64996;Laerm;51545;51.568;6.998;2023-08-24T13:22:47;43.48;39.75;50.83;;
64996;Laerm;51545;51.568;6.998;2023-08-24T13:25:12;43.56;39.78;58.86;;
64996;Laerm;51545;51.568;6.998;2023-08-24T13:27:37;43.67;37.73;62.89;;
64996;Laerm;51545;51.568;6.998;2023-08-24T13:30:03;44.75;39.85;63.38;;
64996;Laerm;51545;51.568;6.998;2023-08-24T13:32:29;43.11;38.90;53.79;;
64996;Laerm;51545;51.568;6.998;2023-08-24T13:34:55;43.98;38.20;64.59;;
64996;Laerm;51545;51.568;6.998;2023-08-24T13:37:21;44.60;39.56;61.11;;
64996;Laerm;51545;51.568;6.998;2023-08-24T13:39:46;46.28;39.77;69.61;;
64996;Laerm;51545;51.568;6.998;2023-08-24T13:42:12;48.70;41.25;67.69;;
64996;Laerm;51545;51.568;6.998;2023-08-24T13:44:38;49.96;42.38;70.87;;
64996;Laerm;51545;51.568;6.998;2023-08-24T13:47:04;48.23;41.02;68.60;;
64996;Laerm;51545;51.568;6.998;2023-08-24T13:49:30;49.76;41.46;72.62;;
64996;Laerm;51545;51.568;6.998;2023-08-24T13:51:55;48.24;41.85;65.66;;